ESGG

Gothenburg-Landvetter Airport

Gothenburg, Sweden
TAF ESGG 241730Z 2418/2518 29012KT CAVOK BECMG 2419/2421 VRB02KT BECMG 2506/2508 27012KT
Issued Valid From Valid To
Sep-24 @ 17:30 UTC
(2 hours ago)
Sep-24 @ 18:00 UTC
(2 hours ago)
Sep-25 @ 18:00 UTC
(in 22 hours)
Expired Click to View Sep-24 @ 18:00 to Sep-24 @ 19:00
TAF ESGG 241730Z 2418/2518 29012KT CAVOK
Wind Visibility Clouds Conditions
290° at 12 knots 10,000+ meters
  • No significant clouds
Becoming Sep-24 @ 19:00 to Sep-25 @ 06:00
BECMG 2419/2421 VRB02KT
Wind Visibility Clouds Conditions
Variable at 2 knots 10,000+ meters
  • No significant clouds
Becoming Sep-25 @ 06:00 to Sep-25 @ 18:00
BECMG 2506/2508 27012KT
Wind Visibility Clouds Conditions
270° at 12 knots 10,000+ meters
  • No significant clouds
TAF ESGG 241730Z 2418/2518 29012KT CAVOK BECMG 2419/2421 VRB02KT BECMG 2506/2508 27012KT
Issued Sep-24 @ 17:30 UTC
(2 hours ago)
Valid From Sep-24 @ 18:00 UTC
(2 hours ago)
Valid To Sep-25 @ 18:00 UTC
(in 22 hours)
Sep-24 @ 18:00 - Sep-24 @ 19:00
Wind Visibility
290° at 12 knots 10,000+ meters
Clouds
  • No significant clouds
Conditions
Becoming Sep-24 @ 19:00 - Sep-25 @ 06:00
Wind Visibility
Variable at 2 knots 10,000+ meters
Clouds
  • No significant clouds
Conditions
Becoming Sep-25 @ 06:00 - Sep-25 @ 18:00
Wind Visibility
270° at 12 knots 10,000+ meters
Clouds
  • No significant clouds
Conditions